createdAt,value
2023-11-01T00:00:48.096Z,97362.31
2023-11-01T00:03:33.016Z,97370.03
2023-11-01T00:06:04.124Z,97369.38
2023-11-01T00:08:32.604Z,97372.75
2023-11-01T00:11:01.223Z,97369.91
2023-11-01T00:13:29.513Z,97373.13
2023-11-01T00:15:58.283Z,97386.69
2023-11-01T00:18:26.575Z,97385.09
2023-11-01T00:20:55.655Z,97395.44
2023-11-01T00:23:25.324Z,97393.66
2023-11-01T00:25:54.048Z,97396.63
2023-11-01T00:28:22.604Z,97404.22
2023-11-01T00:30:51.316Z,97403.03
2023-11-01T00:33:20.068Z,97404.31
2023-11-01T00:35:49.352Z,97403.59
2023-11-01T00:38:21.285Z,97400.56
2023-11-01T00:40:51.226Z,97404.03
2023-11-01T00:43:19.791Z,97414.31
2023-11-01T00:45:48.648Z,97408.66
2023-11-01T00:48:17.179Z,97412.75
2023-11-01T00:50:46.602Z,97415.53
2023-11-01T00:53:15.167Z,97419.59
2023-11-01T00:55:43.905Z,97411.94
2023-11-01T00:58:13.943Z,97419.25
2023-11-01T01:00:42.624Z,97425.78
2023-11-01T01:03:12.204Z,97422.63
2023-11-01T01:05:43.120Z,97424.94
2023-11-01T01:08:11.908Z,97418.19
2023-11-01T01:10:40.493Z,97429.63
2023-11-01T01:13:09.462Z,97432.69
2023-11-01T01:15:39.686Z,97434.81
2023-11-01T01:18:07.999Z,97434.03
2023-11-01T01:20:36.835Z,97443.78
2023-11-01T01:23:05.288Z,97435.81
2023-11-01T01:25:34.152Z,97441.84
2023-11-01T01:28:02.534Z,97435.00
2023-11-01T01:30:31.270Z,97437.97
2023-11-01T01:33:01.039Z,97445.63
2023-11-01T01:35:29.971Z,97438.88
2023-11-01T01:37:58.117Z,97446.84
2023-11-01T01:40:26.847Z,97439.03
2023-11-01T01:42:55.227Z,97450.97
2023-11-01T01:45:24.257Z,97444.56
2023-11-01T01:47:52.962Z,97446.13
2023-11-01T01:50:23.552Z,97443.22
2023-11-01T01:52:51.891Z,97449.75
2023-11-01T01:55:20.947Z,97444.66
2023-11-01T01:57:49.634Z,97440.19
2023-11-01T02:00:19.434Z,97436.69
2023-11-01T02:02:48.030Z,97445.25
2023-11-01T02:05:16.796Z,97438.16
2023-11-01T02:07:46.745Z,97448.41
2023-11-01T02:10:15.811Z,97444.97
2023-11-01T02:12:44.084Z,97456.53
2023-11-01T02:15:12.809Z,97453.28
2023-11-01T02:17:41.107Z,97459.63
2023-11-01T02:20:10.989Z,97456.78
2023-11-01T02:22:39.222Z,97463.63
2023-11-01T02:25:09.650Z,97452.81
2023-11-01T02:27:37.996Z,97458.81
2023-11-01T02:30:07.918Z,97459.25
2023-11-01T02:32:36.961Z,97464.66
2023-11-01T02:35:07.428Z,97460.53
2023-11-01T02:37:35.790Z,97457.03
2023-11-01T02:40:04.655Z,97450.22
2023-11-01T02:42:34.483Z,97459.72
2023-11-01T02:45:03.181Z,97459.16
2023-11-01T02:47:31.520Z,97467.22
2023-11-01T02:50:00.081Z,97471.97
2023-11-01T02:52:28.736Z,97469.59
2023-11-01T02:54:57.303Z,97473.63
2023-11-01T02:57:26.093Z,97475.22
2023-11-01T02:59:56.409Z,97462.91
2023-11-01T03:02:24.818Z,97472.03
2023-11-01T03:04:54.013Z,97476.22
2023-11-01T03:07:22.636Z,97476.44
2023-11-01T03:09:51.052Z,97474.63
2023-11-01T03:12:21.284Z,97478.00
2023-11-01T03:14:50.969Z,97472.16
2023-11-01T03:17:22.157Z,97478.66
2023-11-01T03:19:50.999Z,97475.63
2023-11-01T03:22:20.926Z,97476.38
2023-11-01T03:24:50.868Z,97480.28
2023-11-01T03:27:19.122Z,97476.25
2023-11-01T03:29:47.824Z,97483.81
2023-11-01T03:32:16.135Z,97488.00
2023-11-01T03:34:47.163Z,97493.44
2023-11-01T03:37:15.647Z,97488.34
2023-11-01T03:39:44.193Z,97486.97
2023-11-01T03:42:12.367Z,97493.38
2023-11-01T03:44:41.071Z,97490.13
2023-11-01T03:47:10.744Z,97492.09
2023-11-01T03:49:39.320Z,97499.63
2023-11-01T03:52:09.299Z,97501.16
2023-11-01T03:54:37.883Z,97504.69
2023-11-01T03:57:06.452Z,97505.22
2023-11-01T03:59:35.296Z,97506.41
2023-11-01T04:02:04.377Z,97499.59
2023-11-01T04:04:33.457Z,97506.47
2023-11-01T04:07:01.820Z,97498.84
2023-11-01T04:09:31.862Z,97505.31
2023-11-01T04:11:59.982Z,97513.25
2023-11-01T04:14:29.217Z,97511.66
2023-11-01T04:16:57.523Z,97504.66
2023-11-01T04:19:26.312Z,97504.34
2023-11-01T04:21:54.937Z,97502.56
2023-11-01T04:24:25.252Z,97511.53
2023-11-01T04:26:54.941Z,97510.59
2023-11-01T04:29:26.776Z,97514.84
2023-11-01T04:31:55.075Z,97527.75
2023-11-01T04:34:23.814Z,97513.88
2023-11-01T04:36:51.991Z,97516.25
2023-11-01T04:39:20.563Z,97520.50
2023-11-01T04:41:48.825Z,97523.69
2023-11-01T04:44:18.667Z,97521.59
2023-11-01T04:46:46.913Z,97523.38
2023-11-01T04:49:15.343Z,97526.88
2023-11-01T04:51:45.071Z,97529.81
2023-11-01T04:54:13.576Z,97523.28
2023-11-01T04:56:41.833Z,97531.75
2023-11-01T04:59:10.355Z,97532.44
2023-11-01T05:01:39.982Z,97538.75
2023-11-01T05:04:09.326Z,97536.84
2023-11-01T05:06:37.582Z,97535.53
2023-11-01T05:09:06.263Z,97538.81
2023-11-01T05:11:35.309Z,97541.91
2023-11-01T05:14:04.580Z,97550.63
2023-11-01T05:16:33.448Z,97554.03
2023-11-01T05:19:03.280Z,97547.84
2023-11-01T05:21:31.642Z,97547.22
2023-11-01T05:24:00.184Z,97544.41
2023-11-01T05:26:30.885Z,97543.56
2023-11-01T05:28:59.485Z,97544.50
2023-11-01T05:31:27.661Z,97552.03
2023-11-01T05:33:56.436Z,97555.31
2023-11-01T05:36:26.025Z,97549.91
2023-11-01T05:38:54.613Z,97560.09
2023-11-01T05:41:23.244Z,97551.94
2023-11-01T05:43:51.858Z,97564.44
2023-11-01T05:46:23.301Z,97567.00
2023-11-01T05:48:51.960Z,97576.06
2023-11-01T05:51:20.633Z,97578.28
2023-11-01T05:53:51.105Z,97584.16
2023-11-01T05:56:21.040Z,97586.47
2023-11-01T05:58:51.038Z,97593.16
2023-11-01T06:01:21.365Z,97596.94
2023-11-01T06:03:52.087Z,97602.97
2023-11-01T06:06:20.655Z,97598.56
2023-11-01T06:08:50.648Z,97603.56
2023-11-01T06:11:19.142Z,97605.63
2023-11-01T06:13:47.689Z,97602.81
2023-11-01T06:16:16.039Z,97611.16
2023-11-01T06:18:47.381Z,97606.53
2023-11-01T06:21:16.603Z,97617.09
2023-11-01T06:23:46.135Z,97616.34
2023-11-01T06:26:17.728Z,97611.09
2023-11-01T06:28:46.911Z,97614.06
2023-11-01T06:31:15.557Z,97611.63
2023-11-01T06:33:44.236Z,97609.34
2023-11-01T06:36:13.483Z,97611.97
2023-11-01T06:38:42.320Z,97615.16
2023-11-01T06:41:10.644Z,97618.66
2023-11-01T06:43:40.556Z,97621.03
2023-11-01T06:46:08.767Z,97622.25
2023-11-01T06:48:37.604Z,97616.13
2023-11-01T06:51:06.910Z,97624.16
2023-11-01T06:53:35.589Z,97624.53
2023-11-01T06:56:04.154Z,97627.94
2023-11-01T06:58:32.954Z,97625.97
2023-11-01T07:01:02.861Z,97625.63
2023-11-01T07:03:32.101Z,97636.72
2023-11-01T07:06:00.527Z,97628.09
2023-11-01T07:08:29.163Z,97626.03
2023-11-01T07:10:57.366Z,97631.31
2023-11-01T07:13:28.491Z,97626.13
2023-11-01T07:15:57.216Z,97636.16
2023-11-01T07:18:27.444Z,97628.41
2023-11-01T07:20:55.786Z,97624.91
2023-11-01T07:23:24.508Z,97629.59
2023-11-01T07:25:52.740Z,97634.63
2023-11-01T07:28:21.267Z,97638.16
2023-11-01T07:30:49.640Z,97636.50
2023-11-01T07:33:18.331Z,97635.19
2023-11-01T07:35:48.149Z,97636.78
2023-11-01T07:38:16.771Z,97634.47
2023-11-01T07:40:44.948Z,97637.91
2023-11-01T07:43:13.552Z,97646.06
2023-11-01T07:45:41.985Z,97648.09
2023-11-01T07:48:10.769Z,97638.91
2023-11-01T07:50:41.802Z,97642.06
2023-11-01T07:53:11.665Z,97645.81
2023-11-01T07:55:40.142Z,97643.91
2023-11-01T07:58:09.000Z,97653.56
2023-11-01T08:00:37.349Z,97644.09
2023-11-01T08:03:06.163Z,97646.63
2023-11-01T08:05:34.780Z,97650.44
2023-11-01T08:08:03.586Z,97652.56
2023-11-01T08:10:33.235Z,97655.50
2023-11-01T08:13:01.941Z,97657.00
2023-11-01T08:15:33.731Z,97652.53
2023-11-01T08:18:03.693Z,97643.47
2023-11-01T08:20:32.718Z,97653.50
2023-11-01T08:23:01.333Z,97654.00
2023-11-01T08:25:29.898Z,97654.84
2023-11-01T08:27:59.882Z,97656.53
2023-11-01T08:30:28.400Z,97654.16
2023-11-01T08:32:57.153Z,97640.88
2023-11-01T08:35:25.587Z,97653.50
2023-11-01T08:37:54.170Z,97639.75
2023-11-01T08:40:22.463Z,97646.31
2023-11-01T08:42:51.099Z,97647.59
2023-11-01T08:45:20.817Z,97654.31
2023-11-01T08:47:51.713Z,97642.91
2023-11-01T08:50:20.055Z,97653.38
2023-11-01T08:52:48.666Z,97650.13
2023-11-01T08:55:17.696Z,97660.97
2023-11-01T08:57:47.376Z,97653.66
2023-11-01T09:00:17.950Z,97650.34
2023-11-01T09:02:49.740Z,97653.16
2023-11-01T09:05:20.051Z,97654.13
2023-11-01T09:07:50.895Z,97651.25
2023-11-01T09:10:20.867Z,97651.59
2023-11-01T09:12:49.625Z,97657.72
2023-11-01T09:15:17.991Z,97666.16
2023-11-01T09:17:46.649Z,97654.38
2023-11-01T09:20:16.549Z,97664.00
2023-11-01T09:22:46.037Z,97656.66
2023-11-01T09:25:14.982Z,97661.50
2023-11-01T09:27:44.198Z,97657.13
2023-11-01T09:30:13.485Z,97661.75
2023-11-01T09:32:42.492Z,97650.44
2023-11-01T09:35:13.122Z,97651.59
2023-11-01T09:37:43.285Z,97662.16
2023-11-01T09:40:13.009Z,97657.28
2023-11-01T09:42:42.542Z,97655.25
2023-11-01T09:45:14.411Z,97660.47
2023-11-01T09:47:43.288Z,97662.41
2023-11-01T09:50:13.702Z,97649.94
2023-11-01T09:52:44.230Z,97656.31
2023-11-01T09:55:15.200Z,97652.19
2023-11-01T09:57:44.564Z,97652.22
2023-11-01T10:00:15.428Z,97647.38
2023-11-01T10:02:50.147Z,97640.03
2023-11-01T10:05:18.512Z,97641.06
2023-11-01T10:07:48.505Z,97646.81
2023-11-01T10:10:18.164Z,97648.81
2023-11-01T10:12:47.114Z,97651.31
2023-11-01T10:15:23.287Z,97644.94
2023-11-01T10:17:53.814Z,97633.69
2023-11-01T10:20:26.526Z,97647.44
2023-11-01T10:22:58.905Z,97650.06
2023-11-01T10:25:28.610Z,97641.19
2023-11-01T10:27:57.204Z,97634.78
2023-11-01T10:30:26.530Z,97647.13
2023-11-01T10:32:56.101Z,97647.75
2023-11-01T10:35:24.697Z,97651.59
2023-11-01T10:37:59.499Z,97651.25
2023-11-01T10:40:29.104Z,97647.50
2023-11-01T10:43:00.419Z,97649.50
2023-11-01T10:45:29.076Z,97649.97
2023-11-01T10:47:58.145Z,97648.03
2023-11-01T10:50:28.692Z,97641.53
2023-11-01T10:52:59.172Z,97647.75
2023-11-01T10:55:30.013Z,97650.34
2023-11-01T10:57:58.893Z,97639.69
2023-11-01T11:00:34.162Z,97642.00
2023-11-01T11:03:09.165Z,97653.53
2023-11-01T11:05:42.656Z,97648.88
2023-11-01T11:08:13.040Z,97642.75
2023-11-01T11:10:43.513Z,97646.78
2023-11-01T11:13:39.188Z,97635.22
2023-11-01T11:16:10.009Z,97640.75
2023-11-01T11:19:00.577Z,97643.63
2023-11-01T11:21:55.312Z,97640.81
2023-11-01T11:24:59.227Z,97644.41
2023-11-01T11:27:53.628Z,97639.03
2023-11-01T11:31:07.246Z,97638.50
2023-11-01T11:33:36.321Z,97626.97
2023-11-01T11:36:12.333Z,97639.19
2023-11-01T11:38:46.349Z,97636.59
2023-11-01T11:41:18.806Z,97637.03
2023-11-01T11:44:07.563Z,97632.97
2023-11-01T11:46:39.612Z,97624.50
2023-11-01T11:49:09.613Z,97632.84
2023-11-01T11:51:39.090Z,97620.94
2023-11-01T11:54:14.370Z,97622.03
2023-11-01T11:56:45.117Z,97616.25
2023-11-01T11:59:20.281Z,97621.31
2023-11-01T12:01:49.425Z,97613.28
2023-11-01T12:04:18.321Z,97613.66
2023-11-01T12:06:48.070Z,97607.63
2023-11-01T12:09:20.588Z,97607.44
2023-11-01T12:11:52.289Z,97592.81
2023-11-01T12:14:21.578Z,97595.47
2023-11-01T12:16:51.383Z,97594.22
2023-11-01T12:19:20.601Z,97596.34
2023-11-01T12:21:50.915Z,97596.13
2023-11-01T12:24:20.904Z,97593.53
2023-11-01T12:27:19.121Z,97594.31
2023-11-01T12:29:49.072Z,97595.81
2023-11-01T12:32:19.800Z,97597.66
2023-11-01T12:35:06.396Z,97593.38
2023-11-01T12:37:36.157Z,97594.28
2023-11-01T12:40:09.012Z,97598.44
2023-11-01T12:42:39.950Z,97588.25
2023-11-01T12:45:09.849Z,97592.06
2023-11-01T12:47:43.302Z,97594.19
2023-11-01T12:50:12.153Z,97586.84
2023-11-01T12:52:41.834Z,97585.69
2023-11-01T12:55:10.880Z,97582.63
2023-11-01T12:57:44.617Z,97587.19
2023-11-01T13:00:16.936Z,97583.63
2023-11-01T13:02:45.846Z,97587.44
2023-11-01T13:05:16.622Z,97582.38
2023-11-01T13:07:46.513Z,97580.09
2023-11-01T13:10:16.262Z,97584.34
2023-11-01T13:12:48.100Z,97586.31
2023-11-01T13:15:17.862Z,97581.44
2023-11-01T13:17:46.743Z,97582.00
2023-11-01T13:20:15.074Z,97586.47
2023-11-01T13:22:43.727Z,97585.63
2023-11-01T13:25:12.366Z,97587.25
2023-11-01T13:27:41.183Z,97595.88
2023-11-01T13:30:12.096Z,97586.56
2023-11-01T13:32:40.574Z,97585.88
2023-11-01T13:35:09.672Z,97589.38
2023-11-01T13:37:38.317Z,97586.53
2023-11-01T13:40:07.595Z,97582.59
2023-11-01T13:42:36.356Z,97583.66
2023-11-01T13:45:05.116Z,97581.69
2023-11-01T13:47:35.349Z,97576.31
2023-11-01T13:50:03.819Z,97581.09
2023-11-01T13:52:32.397Z,97588.72
2023-11-01T13:55:00.698Z,97581.44
2023-11-01T13:57:29.596Z,97572.59
2023-11-01T13:59:58.329Z,97574.09
2023-11-01T14:02:27.380Z,97570.88
2023-11-01T14:04:57.309Z,97574.41
2023-11-01T14:07:27.087Z,97572.75
2023-11-01T14:09:55.699Z,97570.66
2023-11-01T14:12:35.094Z,97569.34
2023-11-01T14:15:03.576Z,97568.53
2023-11-01T14:17:35.410Z,97568.16
2023-11-01T14:20:06.025Z,97575.16
2023-11-01T14:22:34.673Z,97569.63
2023-11-01T14:25:03.056Z,97563.75
2023-11-01T14:27:31.828Z,97565.47
2023-11-01T14:30:01.769Z,97569.88
2023-11-01T14:32:31.132Z,97554.66
2023-11-01T14:35:00.940Z,97560.94
2023-11-01T14:37:31.038Z,97562.56
2023-11-01T14:40:00.576Z,97555.75
2023-11-01T14:42:29.338Z,97554.84
2023-11-01T14:44:57.699Z,97557.84
2023-11-01T14:47:26.408Z,97554.22
2023-11-01T14:49:54.811Z,97548.56
2023-11-01T14:52:23.888Z,97551.81
2023-11-01T14:54:53.735Z,97544.91
2023-11-01T14:57:22.732Z,97540.44
2023-11-01T14:59:51.163Z,97536.00
2023-11-01T15:02:21.137Z,97532.00
2023-11-01T15:04:51.700Z,97537.69
2023-11-01T15:07:21.103Z,97542.50
2023-11-01T15:09:49.473Z,97528.13
2023-11-01T15:12:23.833Z,97532.75
2023-11-01T15:14:53.530Z,97532.59
2023-11-01T15:17:22.335Z,97534.97
2023-11-01T15:19:50.910Z,97532.16
2023-11-01T15:22:19.562Z,97528.59
2023-11-01T15:24:49.089Z,97524.94
2023-11-01T15:27:19.712Z,97529.75
2023-11-01T15:29:49.540Z,97517.34
2023-11-01T15:32:18.327Z,97517.00
2023-11-01T15:34:47.541Z,97516.59
2023-11-01T15:37:16.552Z,97526.63
2023-11-01T15:39:45.712Z,97520.63
2023-11-01T15:42:14.734Z,97516.22
2023-11-01T15:44:44.506Z,97520.22
2023-11-01T15:47:13.407Z,97519.44
2023-11-01T15:49:41.747Z,97513.41
2023-11-01T15:52:10.457Z,97507.41
2023-11-01T15:54:38.728Z,97510.59
2023-11-01T15:57:12.027Z,97512.59
2023-11-01T15:59:40.427Z,97513.38
2023-11-01T16:02:11.985Z,97519.81
2023-11-01T16:04:40.679Z,97512.13
2023-11-01T16:07:09.665Z,97515.72
2023-11-01T16:09:39.564Z,97517.72
2023-11-01T16:12:09.875Z,97515.00
2023-11-01T16:14:38.315Z,97513.72
2023-11-01T16:17:08.783Z,97511.72
2023-11-01T16:19:38.731Z,97507.81
2023-11-01T16:22:07.609Z,97505.59
2023-11-01T16:24:35.982Z,97504.41
2023-11-01T16:27:05.198Z,97499.22
2023-11-01T16:29:33.550Z,97499.13
2023-11-01T16:32:02.513Z,97510.34
2023-11-01T16:34:30.922Z,97498.41
2023-11-01T16:37:00.990Z,97505.34
2023-11-01T16:39:29.441Z,97505.50
2023-11-01T16:41:58.086Z,97513.41
2023-11-01T16:44:26.320Z,97507.59
2023-11-01T16:46:55.978Z,97505.28
2023-11-01T16:49:24.413Z,97500.13
2023-11-01T16:51:53.084Z,97501.13
2023-11-01T16:54:22.860Z,97503.81
2023-11-01T16:56:51.514Z,97501.97
2023-11-01T16:59:20.048Z,97490.03
2023-11-01T17:01:48.924Z,97488.41
2023-11-01T17:04:17.477Z,97502.78
2023-11-01T17:06:46.317Z,97498.38
2023-11-01T17:09:14.636Z,97491.38
2023-11-01T17:11:45.164Z,97494.16
2023-11-01T17:14:13.554Z,97497.53
2023-11-01T17:16:42.829Z,97497.56
2023-11-01T17:19:11.241Z,97497.13
2023-11-01T17:21:39.783Z,97493.97
2023-11-01T17:24:09.317Z,97492.09
2023-11-01T17:26:38.033Z,97491.13
2023-11-01T17:29:08.756Z,97487.44
2023-11-01T17:31:40.644Z,97491.44
2023-11-01T17:34:10.388Z,97481.91
2023-11-01T17:36:39.254Z,97488.34
2023-11-01T17:39:09.534Z,97486.78
2023-11-01T17:41:59.244Z,97483.28
2023-11-01T17:44:32.411Z,97476.66
2023-11-01T17:47:03.423Z,97471.44
2023-11-01T17:49:58.689Z,97474.56
2023-11-01T17:52:32.721Z,97478.78
2023-11-01T17:55:01.952Z,97478.97
2023-11-01T17:57:33.186Z,97476.34
2023-11-01T18:00:05.105Z,97470.34
2023-11-01T18:03:17.032Z,97468.56
2023-11-01T18:05:56.100Z,97463.63
2023-11-01T18:08:32.504Z,97459.59
2023-11-01T18:11:04.708Z,97455.75
2023-11-01T18:13:34.745Z,97455.72
2023-11-01T18:16:06.834Z,97454.31
2023-11-01T18:18:45.891Z,97455.19
2023-11-01T18:21:20.395Z,97451.19
2023-11-01T18:23:55.526Z,97450.00
2023-11-01T18:26:24.094Z,97455.50
2023-11-01T18:28:57.830Z,97453.06
2023-11-01T18:31:30.804Z,97457.50
2023-11-01T18:34:01.663Z,97448.94
2023-11-01T18:36:32.212Z,97460.44
2023-11-01T18:39:01.488Z,97450.84
2023-11-01T18:41:34.830Z,97452.41
2023-11-01T18:44:04.905Z,97453.31
2023-11-01T18:46:36.973Z,97451.44
2023-11-01T18:49:06.934Z,97449.59
2023-11-01T18:51:56.925Z,97453.34
2023-11-01T18:54:40.154Z,97454.47
2023-11-01T18:57:15.575Z,97447.75
2023-11-01T18:59:45.326Z,97448.78
2023-11-01T19:02:53.732Z,97452.81
2023-11-01T19:05:24.491Z,97445.75
2023-11-01T19:07:53.650Z,97448.16
2023-11-01T19:10:24.709Z,97446.50
2023-11-01T19:12:54.085Z,97440.84
2023-11-01T19:16:18.351Z,97452.09
2023-11-01T19:18:49.944Z,97449.72
2023-11-01T19:21:19.460Z,97438.69
2023-11-01T19:23:50.085Z,97437.69
2023-11-01T19:26:21.888Z,97438.88
2023-11-01T19:28:51.823Z,97436.66
2023-11-01T19:31:22.273Z,97432.78
2023-11-01T19:33:54.531Z,97426.78
2023-11-01T19:36:24.445Z,97419.28
2023-11-01T19:38:53.300Z,97422.31
2023-11-01T19:41:22.613Z,97420.69
2023-11-01T19:43:57.555Z,97416.75
2023-11-01T19:46:26.967Z,97417.72
2023-11-01T19:48:57.184Z,97412.94
2023-11-01T19:51:25.815Z,97408.75
2023-11-01T19:53:56.741Z,97405.47
2023-11-01T19:56:27.214Z,97409.09
2023-11-01T19:58:55.557Z,97409.47
2023-11-01T20:01:24.326Z,97410.91
2023-11-01T20:03:57.985Z,97409.75
2023-11-01T20:06:26.967Z,97405.59
2023-11-01T20:08:55.367Z,97410.22
2023-11-01T20:11:24.474Z,97398.81
2023-11-01T20:13:53.298Z,97404.19
2023-11-01T20:16:30.134Z,97400.13
2023-11-01T20:19:02.912Z,97398.84
2023-11-01T20:21:33.741Z,97387.44
2023-11-01T20:24:02.318Z,97397.78
2023-11-01T20:26:31.726Z,97391.97
2023-11-01T20:29:01.140Z,97393.72
2023-11-01T20:31:31.332Z,97391.78
2023-11-01T20:34:02.347Z,97388.19
2023-11-01T20:36:31.204Z,97393.06
2023-11-01T20:39:00.843Z,97384.19
2023-11-01T20:41:29.667Z,97394.28
2023-11-01T20:43:58.166Z,97388.41
2023-11-01T20:46:26.733Z,97389.19
2023-11-01T20:48:55.237Z,97379.59
2023-11-01T20:51:25.340Z,97379.25
2023-11-01T20:53:54.916Z,97376.47
2023-11-01T20:56:23.722Z,97372.94
2023-11-01T20:58:53.127Z,97377.91
2023-11-01T21:01:21.943Z,97365.66
2023-11-01T21:03:51.080Z,97371.66
2023-11-01T21:06:21.606Z,97375.53
2023-11-01T21:08:54.116Z,97372.97
2023-11-01T21:11:22.902Z,97371.16
2023-11-01T21:13:52.128Z,97380.91
2023-11-01T21:16:21.172Z,97369.94
2023-11-01T21:18:50.924Z,97367.53
2023-11-01T21:21:19.945Z,97376.25
2023-11-01T21:23:48.518Z,97371.81
2023-11-01T21:26:18.533Z,97369.34
2023-11-01T21:28:46.852Z,97372.56
2023-11-01T21:31:15.543Z,97367.19
2023-11-01T21:33:46.600Z,97365.69
2023-11-01T21:36:15.545Z,97358.31
2023-11-01T21:38:44.870Z,97362.94
2023-11-01T21:41:13.909Z,97358.66
2023-11-01T21:43:53.988Z,97352.44
2023-11-01T21:46:29.343Z,97362.81
2023-11-01T21:48:58.157Z,97361.50
2023-11-01T21:51:30.485Z,97361.97
2023-11-01T21:53:59.735Z,97366.28
2023-11-01T21:56:36.294Z,97354.59
2023-11-01T21:59:18.133Z,97351.84
2023-11-01T22:01:46.764Z,97357.44
2023-11-01T22:04:21.632Z,97353.16
2023-11-01T22:06:52.551Z,97348.88
2023-11-01T22:09:22.491Z,97356.44
2023-11-01T22:11:52.485Z,97356.94
2023-11-01T22:14:37.161Z,97347.63
2023-11-01T22:17:08.227Z,97352.84
2023-11-01T22:19:38.611Z,97347.31
2023-11-01T22:22:11.925Z,97342.50
2023-11-01T22:24:43.079Z,97346.56
2023-11-01T22:27:12.800Z,97345.00
2023-11-01T22:29:48.090Z,97331.38
2023-11-01T22:32:27.193Z,97327.88
2023-11-01T22:34:56.645Z,97325.44
2023-11-01T22:37:28.420Z,97324.75
2023-11-01T22:39:57.921Z,97323.94
2023-11-01T22:42:29.939Z,97315.84
2023-11-01T22:45:03.098Z,97314.59
2023-11-01T22:47:32.878Z,97313.53
2023-11-01T22:50:01.963Z,97306.41
2023-11-01T22:52:31.377Z,97305.69
2023-11-01T22:55:01.065Z,97301.31
2023-11-01T22:57:31.735Z,97299.09
2023-11-01T23:00:02.516Z,97295.28
2023-11-01T23:02:32.473Z,97299.41
2023-11-01T23:05:00.864Z,97291.66
2023-11-01T23:07:29.699Z,97286.78
2023-11-01T23:09:58.549Z,97291.63
2023-11-01T23:12:27.756Z,97298.72
2023-11-01T23:14:56.125Z,97288.06
2023-11-01T23:17:26.124Z,97290.13
2023-11-01T23:19:54.604Z,97289.81
2023-11-01T23:22:23.226Z,97290.22
2023-11-01T23:24:51.668Z,97286.06
2023-11-01T23:27:20.390Z,97284.25
2023-11-01T23:29:48.825Z,97279.72
2023-11-01T23:32:17.709Z,97270.22
2023-11-01T23:34:49.816Z,97274.50
2023-11-01T23:37:34.911Z,97270.56
2023-11-01T23:40:05.792Z,97271.69
2023-11-01T23:42:35.454Z,97272.09
2023-11-01T23:45:27.815Z,97269.91
2023-11-01T23:47:58.383Z,97259.53
2023-11-01T23:50:34.083Z,97256.50
2023-11-01T23:53:04.220Z,97250.16
2023-11-01T23:55:32.780Z,97247.63
2023-11-01T23:58:01.985Z,97248.22
